Time,TemperatureF,DewpointF,PressureIn,WindDirection,WindDirectionDegrees,WindSpeedMPH,WindSpeedGustMPH,Humidity,HourlyPrecipIn,Conditions,Clouds,dailyrainin,SoftwareType,DateUTC
2013-05-12 00:07:00,61.2,47.1,29.93,SE,145,0.0,0.0,60,0.00,,,0.00,meteobridge,2013-05-12 07:07:00,
2013-05-12 00:22:00,61.2,46.8,29.93,SE,145,0.0,0.0,59,0.00,,,0.00,meteobridge,2013-05-12 07:22:00,
2013-05-12 00:37:00,61.3,48.2,29.93,SE,145,0.0,0.9,62,0.00,,,0.00,meteobridge,2013-05-12 07:37:00,
2013-05-12 00:53:00,61.3,48.2,29.93,SE,145,0.0,0.0,62,0.00,,,0.00,meteobridge,2013-05-12 07:53:00,
2013-05-12 01:08:00,61.5,48.7,29.93,SE,143,0.0,0.9,63,0.00,,,0.00,meteobridge,2013-05-12 08:08:00,
2013-05-12 01:23:00,61.0,48.7,29.93,SE,143,0.0,0.0,64,0.00,,,0.00,meteobridge,2013-05-12 08:23:00,
2013-05-12 01:38:00,60.6,48.4,29.93,SE,143,0.0,0.0,64,0.00,,,0.00,meteobridge,2013-05-12 08:38:00,
2013-05-12 01:53:00,60.4,49.1,29.92,SE,143,0.0,0.0,66,0.00,,,0.00,meteobridge,2013-05-12 08:53:00,
2013-05-12 02:08:00,60.1,49.5,29.93,SE,143,0.0,0.9,68,0.00,,,0.00,meteobridge,2013-05-12 09:08:00,
2013-05-12 02:23:00,60.1,49.8,29.93,NE,50,0.0,0.9,69,0.00,,,0.00,meteobridge,2013-05-12 09:23:00,
2013-05-12 02:38:00,60.6,50.4,29.93,NE,42,0.0,0.9,69,0.00,,,0.00,meteobridge,2013-05-12 09:38:00,
2013-05-12 02:53:00,60.3,50.9,29.93,NE,42,0.9,0.9,71,0.00,,,0.00,meteobridge,2013-05-12 09:53:00,
2013-05-12 03:09:00,61.3,50.7,29.92,ENE,65,0.0,0.9,68,0.00,,,0.00,meteobridge,2013-05-12 10:09:00,
2013-05-12 03:24:00,61.0,50.4,29.92,North,355,0.0,0.0,68,0.00,,,0.00,meteobridge,2013-05-12 10:24:00,
2013-05-12 03:39:00,60.3,49.6,29.92,NNE,27,0.0,0.0,68,0.00,,,0.00,meteobridge,2013-05-12 10:39:00,
2013-05-12 03:54:00,58.3,49.3,29.91,NNE,27,0.0,0.0,72,0.00,,,0.00,meteobridge,2013-05-12 10:54:00,
2013-05-12 04:09:00,57.4,48.7,29.91,NNE,27,0.0,0.0,73,0.00,,,0.00,meteobridge,2013-05-12 11:09:00,
2013-05-12 04:24:00,57.0,48.7,29.91,NNE,27,0.0,0.0,74,0.00,,,0.00,meteobridge,2013-05-12 11:24:00,
2013-05-12 04:39:00,58.1,50.2,29.91,NNE,27,0.9,0.9,75,0.00,,,0.00,meteobridge,2013-05-12 11:39:00,
2013-05-12 04:54:00,59.4,50.7,29.90,NNE,27,0.9,0.9,73,0.00,,,0.00,meteobridge,2013-05-12 11:54:00,
2013-05-12 05:09:00,59.7,50.4,29.90,NE,47,0.9,2.0,71,0.00,,,0.00,meteobridge,2013-05-12 12:09:00,
2013-05-12 05:24:00,59.5,50.5,29.90,NE,38,0.0,0.9,72,0.00,,,0.00,meteobridge,2013-05-12 12:24:00,
2013-05-12 05:39:00,59.5,50.5,29.90,ENE,59,0.0,0.9,72,0.00,,,0.00,meteobridge,2013-05-12 12:39:00,
2013-05-12 05:54:00,59.5,50.5,29.90,ENE,58,0.0,0.0,72,0.00,,,0.00,meteobridge,2013-05-12 12:54:00,
2013-05-12 06:09:00,59.7,51.1,29.90,ENE,58,0.0,0.9,73,0.00,,,0.00,meteobridge,2013-05-12 13:09:00,
2013-05-12 06:25:00,60.3,50.9,29.90,ENE,58,0.0,0.9,71,0.00,,,0.00,meteobridge,2013-05-12 13:25:00,
2013-05-12 06:40:00,61.2,50.9,29.90,ENE,58,0.0,0.0,69,0.00,,,0.00,meteobridge,2013-05-12 13:40:00,
2013-05-12 06:55:00,61.5,51.6,29.89,ENE,58,0.0,0.0,70,0.00,,,0.00,meteobridge,2013-05-12 13:55:00,
2013-05-12 07:10:00,62.2,52.3,29.90,ENE,58,0.0,0.0,70,0.00,,,0.00,meteobridge,2013-05-12 14:10:00,
2013-05-12 07:25:00,63.1,52.9,29.90,ENE,58,0.0,0.0,69,0.00,,,0.00,meteobridge,2013-05-12 14:25:00,
2013-05-12 07:40:00,64.2,53.4,29.91,ENE,58,0.0,0.0,68,0.00,,,0.00,meteobridge,2013-05-12 14:40:00,
2013-05-12 07:56:00,65.8,51.1,29.91,WNW,301,0.0,2.9,59,0.00,,,0.00,meteobridge,2013-05-12 14:56:00,
2013-05-12 08:11:00,66.0,54.0,29.91,SW,233,0.0,0.9,65,0.02,,,0.02,meteobridge,2013-05-12 15:11:00,
2013-05-12 08:26:00,64.9,52.9,29.91,West,267,0.0,0.9,65,0.03,,,0.03,meteobridge,2013-05-12 15:26:00,
2013-05-12 08:41:00,66.9,53.4,29.91,SSE,162,0.0,0.9,62,0.03,,,0.03,meteobridge,2013-05-12 15:41:00,
2013-05-12 08:56:00,68.7,52.0,29.92,SSE,150,0.9,0.9,55,0.03,,,0.03,meteobridge,2013-05-12 15:56:00,
2013-05-12 09:11:00,70.2,52.7,29.91,SSE,167,0.0,2.0,54,0.01,,,0.03,meteobridge,2013-05-12 16:11:00,
2013-05-12 09:26:00,71.2,53.2,29.91,SE,135,0.9,0.9,53,0.00,,,0.03,meteobridge,2013-05-12 16:26:00,
2013-05-12 09:41:00,72.1,52.0,29.91,South,187,2.0,2.9,49,0.00,,,0.03,meteobridge,2013-05-12 16:41:00,
2013-05-12 09:56:00,72.7,52.3,29.91,SSW,200,0.0,0.0,49,0.00,,,0.03,meteobridge,2013-05-12 16:56:00,
2013-05-12 10:11:00,73.2,51.3,29.91,SSE,151,0.9,2.0,46,0.00,,,0.03,meteobridge,2013-05-12 17:11:00,
2013-05-12 10:26:00,73.6,50.4,29.92,West,260,0.0,2.9,44,0.00,,,0.03,meteobridge,2013-05-12 17:26:00,
2013-05-12 10:41:00,73.9,51.8,29.92,SW,230,0.0,0.9,46,0.00,,,0.03,meteobridge,2013-05-12 17:41:00,
2013-05-12 10:56:00,74.8,50.9,29.92,SSW,196,0.9,0.9,43,0.00,,,0.03,meteobridge,2013-05-12 17:56:00,
2013-05-12 11:11:00,74.7,50.0,29.92,SE,146,0.0,0.9,42,0.00,,,0.03,meteobridge,2013-05-12 18:11:00,
2013-05-12 11:26:00,75.2,49.8,29.92,WNW,288,0.0,0.0,41,0.00,,,0.03,meteobridge,2013-05-12 18:26:00,
2013-05-12 11:42:00,75.4,51.3,29.92,West,262,0.0,0.0,43,0.00,,,0.03,meteobridge,2013-05-12 18:42:00,
2013-05-12 11:57:00,76.3,50.2,29.92,South,169,0.9,0.9,40,0.00,,,0.03,meteobridge,2013-05-12 18:57:00,
2013-05-12 12:12:00,77.4,50.5,29.92,WNW,300,0.0,2.0,39,0.00,,,0.03,meteobridge,2013-05-12 19:12:00,
2013-05-12 12:27:00,77.2,51.6,29.92,West,276,0.0,2.0,41,0.00,,,0.03,meteobridge,2013-05-12 19:27:00,
2013-05-12 12:42:00,77.7,49.5,29.91,SW,236,0.9,2.0,37,0.00,,,0.03,meteobridge,2013-05-12 19:42:00,
2013-05-12 12:57:00,78.8,49.6,29.91,SW,225,0.9,2.0,36,0.00,,,0.03,meteobridge,2013-05-12 19:57:00,
2013-05-12 13:12:00,79.5,51.6,29.90,WNW,290,0.9,0.9,38,0.00,,,0.03,meteobridge,2013-05-12 20:12:00,
2013-05-12 13:27:00,79.9,49.8,29.90,SSE,149,0.9,8.1,35,0.00,,,0.03,meteobridge,2013-05-12 20:27:00,
2013-05-12 13:42:00,79.9,52.0,29.90,South,178,0.9,2.9,38,0.00,,,0.03,meteobridge,2013-05-12 20:42:00,
2013-05-12 13:58:00,80.4,53.2,29.90,West,274,0.0,2.9,39,0.00,,,0.03,meteobridge,2013-05-12 20:58:00,
2013-05-12 14:13:00,79.9,52.0,29.90,WSW,254,0.0,2.9,38,0.00,,,0.03,meteobridge,2013-05-12 21:13:00,
2013-05-12 14:28:00,80.1,52.2,29.89,WNW,302,2.0,2.0,38,0.00,,,0.03,meteobridge,2013-05-12 21:28:00,
2013-05-12 14:43:00,79.3,51.4,29.89,West,268,0.9,2.9,38,0.00,,,0.03,meteobridge,2013-05-12 21:43:00,
2013-05-12 14:58:00,79.0,52.0,29.89,WSW,256,0.0,2.9,39,0.00,,,0.03,meteobridge,2013-05-12 21:58:00,
2013-05-12 15:13:00,78.1,51.1,29.89,WNW,289,2.0,4.9,39,0.00,,,0.03,meteobridge,2013-05-12 22:13:00,
2013-05-12 15:28:00,77.4,51.1,29.89,West,279,0.0,2.0,40,0.00,,,0.03,meteobridge,2013-05-12 22:28:00,
2013-05-12 15:43:00,77.0,51.4,29.89,West,272,0.9,2.9,41,0.00,,,0.03,meteobridge,2013-05-12 22:43:00,
2013-05-12 15:58:00,76.5,50.4,29.89,SSW,198,0.0,4.0,40,0.00,,,0.03,meteobridge,2013-05-12 22:58:00,
2013-05-12 16:13:00,75.9,51.3,29.89,SSW,192,0.0,0.9,42,0.00,,,0.03,meteobridge,2013-05-12 23:13:00,
2013-05-12 16:28:00,75.7,51.1,29.90,NW,319,0.9,2.0,42,0.00,,,0.03,meteobridge,2013-05-12 23:28:00,
2013-05-12 16:43:00,75.4,51.3,29.89,WSW,248,0.0,2.9,43,0.00,,,0.03,meteobridge,2013-05-12 23:43:00,
2013-05-12 16:58:00,75.7,51.6,29.89,WSW,256,2.0,2.0,43,0.00,,,0.03,meteobridge,2013-05-12 23:58:00,
2013-05-12 17:13:00,75.9,51.8,29.89,WSW,243,0.9,2.9,43,0.00,,,0.03,meteobridge,2013-05-13 00:13:00,
2013-05-12 17:28:00,75.7,51.1,29.89,WSW,245,2.0,6.0,42,0.00,,,0.03,meteobridge,2013-05-13 00:28:00,
2013-05-12 17:43:00,75.0,51.1,29.88,WSW,258,0.9,4.9,43,0.00,,,0.03,meteobridge,2013-05-13 00:43:00,
2013-05-12 17:59:00,74.8,51.4,29.88,WSW,240,0.0,2.0,44,0.00,,,0.03,meteobridge,2013-05-13 00:59:00,
2013-05-12 18:14:00,74.5,51.1,29.88,WSW,254,2.0,2.9,44,0.00,,,0.03,meteobridge,2013-05-13 01:14:00,
2013-05-12 18:29:00,74.1,51.4,29.87,WNW,288,0.0,2.0,45,0.00,,,0.03,meteobridge,2013-05-13 01:29:00,
2013-05-12 18:44:00,73.9,51.3,29.86,West,261,0.0,0.9,45,0.00,,,0.03,meteobridge,2013-05-13 01:44:00,
2013-05-12 18:59:00,73.4,52.0,29.85,West,261,0.0,0.0,47,0.00,,,0.03,meteobridge,2013-05-13 01:59:00,
2013-05-12 19:14:00,72.9,51.4,29.86,South,181,0.0,0.0,47,0.00,,,0.03,meteobridge,2013-05-13 02:14:00,
2013-05-12 19:29:00,72.1,52.0,29.86,WNW,287,0.0,0.0,49,0.00,,,0.03,meteobridge,2013-05-13 02:29:00,
2013-05-12 19:45:00,71.6,51.4,29.85,WNW,287,0.0,0.0,49,0.00,,,0.03,meteobridge,2013-05-13 02:45:00,
2013-05-12 20:00:00,70.9,51.3,29.86,West,270,0.0,0.0,50,0.00,,,0.03,meteobridge,2013-05-13 03:00:00,
2013-05-12 20:15:00,70.2,51.8,29.86,West,270,0.0,0.0,52,0.00,,,0.03,meteobridge,2013-05-13 03:15:00,
2013-05-12 20:31:00,68.7,51.4,29.86,West,270,0.0,0.0,54,0.00,,,0.03,meteobridge,2013-05-13 03:31:00,
2013-05-12 20:46:00,67.6,51.4,29.87,West,270,0.0,0.0,56,0.00,,,0.03,meteobridge,2013-05-13 03:46:00,
2013-05-12 21:02:00,67.5,50.7,29.88,ESE,123,0.0,0.9,55,0.00,,,0.03,meteobridge,2013-05-13 04:02:00,
2013-05-12 21:17:00,67.8,51.1,29.88,West,264,0.0,0.0,55,0.00,,,0.03,meteobridge,2013-05-13 04:17:00,
2013-05-12 21:32:00,67.3,51.1,29.88,West,265,0.9,0.9,56,0.00,,,0.03,meteobridge,2013-05-13 04:32:00,
2013-05-12 21:47:00,66.9,51.3,29.89,West,265,0.0,0.9,57,0.00,,,0.03,meteobridge,2013-05-13 04:47:00,
2013-05-12 22:02:00,66.4,50.7,29.90,WSW,252,0.0,0.9,57,0.00,,,0.03,meteobridge,2013-05-13 05:02:00,
2013-05-12 22:18:00,66.2,50.9,29.90,West,276,0.0,0.0,58,0.00,,,0.03,meteobridge,2013-05-13 05:18:00,
2013-05-12 22:33:00,66.0,49.8,29.90,WNW,289,0.0,2.0,56,0.00,,,0.03,meteobridge,2013-05-13 05:33:00,
2013-05-12 22:48:00,65.8,49.6,29.90,WSW,251,0.0,0.0,56,0.00,,,0.03,meteobridge,2013-05-13 05:48:00,
2013-05-12 23:03:00,65.7,49.1,29.90,SW,231,0.0,0.9,55,0.00,,,0.03,meteobridge,2013-05-13 06:03:00,
2013-05-12 23:18:00,64.6,48.9,29.91,SW,230,0.0,0.0,57,0.00,,,0.03,meteobridge,2013-05-13 06:18:00,
2013-05-12 23:34:00,63.7,49.1,29.91,SW,230,0.0,0.0,59,0.00,,,0.03,meteobridge,2013-05-13 06:34:00,
2013-05-12 23:49:00,62.4,49.6,29.90,SW,230,0.0,0.0,63,0.00,,,0.03,meteobridge,2013-05-13 06:49:00,